createdAt,value
2022-11-28T00:00:36.168Z,13.60
2022-11-28T00:01:58.267Z,15.50
2022-11-28T00:03:22.369Z,15.30
2022-11-28T00:04:44.741Z,14.50
2022-11-28T00:06:08.080Z,14.70
2022-11-28T00:07:30.293Z,14.47
2022-11-28T00:08:53.153Z,14.37
2022-11-28T00:10:15.215Z,14.50
2022-11-28T00:11:40.030Z,13.60
2022-11-28T00:13:02.101Z,14.37
2022-11-28T00:14:24.160Z,14.07
2022-11-28T00:15:54.373Z,14.40
2022-11-28T00:17:16.417Z,14.07
2022-11-28T00:18:38.534Z,14.90
2022-11-28T00:20:00.585Z,15.97
2022-11-28T00:21:25.089Z,15.70
2022-11-28T00:22:47.143Z,14.17
2022-11-28T00:24:09.777Z,15.93
2022-11-28T00:25:31.849Z,16.00
2022-11-28T00:26:53.960Z,16.00
2022-11-28T00:28:16.018Z,16.43
2022-11-28T00:29:39.674Z,16.40
2022-11-28T00:31:01.910Z,16.17
2022-11-28T00:32:23.980Z,17.23
2022-11-28T00:33:46.421Z,15.40
2022-11-28T00:35:08.659Z,15.77
2022-11-28T00:36:31.129Z,16.30
2022-11-28T00:37:53.149Z,15.30
2022-11-28T00:39:16.539Z,16.20
2022-11-28T00:40:38.684Z,16.33
2022-11-28T00:42:00.713Z,16.80
2022-11-28T00:43:23.004Z,15.23
2022-11-28T00:44:45.117Z,16.27
2022-11-28T00:46:08.040Z,17.10
2022-11-28T00:47:30.155Z,17.10
2022-11-28T00:48:52.629Z,16.07
2022-11-28T00:50:15.418Z,16.97
2022-11-28T00:51:38.169Z,15.70
2022-11-28T00:53:00.563Z,16.90
2022-11-28T00:54:22.601Z,17.20
2022-11-28T00:55:44.844Z,16.03
2022-11-28T00:57:06.899Z,16.80
2022-11-28T00:58:28.947Z,16.70
2022-11-28T00:59:51.033Z,17.10
2022-11-28T01:01:34.403Z,17.83
2022-11-28T01:02:56.533Z,15.83
2022-11-28T01:04:18.609Z,17.80
2022-11-28T01:05:42.115Z,17.90
2022-11-28T01:07:04.142Z,18.10
2022-11-28T01:08:26.987Z,16.33
2022-11-28T01:09:49.038Z,18.17
2022-11-28T01:11:13.084Z,17.20
2022-11-28T01:12:35.159Z,15.10
2022-11-28T01:14:00.382Z,16.17
2022-11-28T01:15:22.528Z,18.83
2022-11-28T01:16:44.766Z,16.27
2022-11-28T01:18:07.074Z,17.60
2022-11-28T01:19:29.168Z,17.60
2022-11-28T01:20:51.409Z,16.30
2022-11-28T01:22:13.456Z,16.10
2022-11-28T01:23:36.067Z,16.20
2022-11-28T01:24:58.112Z,15.93
2022-11-28T01:26:30.888Z,16.30
2022-11-28T01:27:52.958Z,16.73
2022-11-28T01:29:16.310Z,17.53
2022-11-28T01:30:38.362Z,17.17
2022-11-28T01:32:00.520Z,17.63
2022-11-28T01:33:22.645Z,17.77
2022-11-28T01:34:44.835Z,15.40
2022-11-28T01:36:07.668Z,18.63
2022-11-28T01:37:30.445Z,15.97
2022-11-28T01:38:53.997Z,16.90
2022-11-28T01:40:16.136Z,18.03
2022-11-28T01:41:39.680Z,16.53
2022-11-28T01:43:01.743Z,16.90
2022-11-28T01:44:23.740Z,18.97
2022-11-28T01:45:46.070Z,16.83
2022-11-28T01:47:08.296Z,17.37
2022-11-28T01:48:37.737Z,17.13
2022-11-28T01:50:00.689Z,17.10
2022-11-28T01:51:23.074Z,16.27
2022-11-28T01:52:49.914Z,17.20
2022-11-28T01:54:14.575Z,17.67
2022-11-28T01:55:43.699Z,17.40
2022-11-28T01:57:11.081Z,17.53
2022-11-28T01:58:36.327Z,17.20
2022-11-28T02:00:09.036Z,16.43
2022-11-28T02:01:31.328Z,17.10
2022-11-28T02:03:09.124Z,16.07
2022-11-28T02:04:31.237Z,16.60
2022-11-28T02:05:53.975Z,15.50
2022-11-28T02:07:16.146Z,16.80
2022-11-28T02:08:38.480Z,17.37
2022-11-28T02:10:02.662Z,16.40
2022-11-28T02:11:45.543Z,16.30
2022-11-28T02:13:13.285Z,15.20
2022-11-28T02:14:59.655Z,15.97
2022-11-28T02:16:30.700Z,17.47
2022-11-28T02:17:52.821Z,16.73
2022-11-28T02:19:32.583Z,16.23
2022-11-28T02:21:03.645Z,16.13
2022-11-28T02:22:37.687Z,16.17
2022-11-28T02:24:08.627Z,16.03
2022-11-28T02:25:52.110Z,16.90
2022-11-28T02:27:59.891Z,17.33
2022-11-28T02:30:02.075Z,15.83
2022-11-28T02:31:33.312Z,17.30
2022-11-28T02:33:14.477Z,17.20
2022-11-28T02:34:50.515Z,16.40
2022-11-28T02:36:19.486Z,16.70
2022-11-28T02:37:53.869Z,16.40
2022-11-28T02:39:41.341Z,16.80
2022-11-28T02:41:14.155Z,16.03
2022-11-28T02:42:57.573Z,14.20
2022-11-28T02:44:30.784Z,15.17
2022-11-28T02:46:01.937Z,15.13
2022-11-28T02:47:33.368Z,16.50
2022-11-28T02:49:00.590Z,16.97
2022-11-28T02:50:28.627Z,16.47
2022-11-28T02:52:00.132Z,15.67
2022-11-28T02:53:26.883Z,16.40
2022-11-28T02:54:50.946Z,16.00
2022-11-28T02:56:13.235Z,14.30
2022-11-28T02:57:40.376Z,15.93
2022-11-28T02:59:02.532Z,18.30
2022-11-28T03:00:34.505Z,15.80
2022-11-28T03:01:56.988Z,16.70
2022-11-28T03:03:19.036Z,16.33
2022-11-28T03:04:57.591Z,15.93
2022-11-28T03:06:27.403Z,15.10
2022-11-28T03:08:18.721Z,15.60
2022-11-28T03:09:46.649Z,16.17
2022-11-28T03:11:20.833Z,17.37
2022-11-28T03:13:01.565Z,16.30
2022-11-28T03:14:32.742Z,15.90
2022-11-28T03:16:09.876Z,15.57
2022-11-28T03:17:54.981Z,16.00
2022-11-28T03:19:16.972Z,13.83
2022-11-28T03:21:06.355Z,15.70
2022-11-28T03:23:06.020Z,15.90
2022-11-28T03:24:41.881Z,15.93
2022-11-28T03:26:22.780Z,16.30
2022-11-28T03:27:55.315Z,17.07
2022-11-28T03:29:34.618Z,16.30
2022-11-28T03:31:21.788Z,16.03
2022-11-28T03:32:47.414Z,15.97
2022-11-28T03:34:14.610Z,17.13
2022-11-28T03:35:42.845Z,15.00
2022-11-28T03:37:11.510Z,14.80
2022-11-28T03:38:41.730Z,15.63
2022-11-28T03:40:08.741Z,13.77
2022-11-28T03:41:38.691Z,15.23
2022-11-28T03:43:11.694Z,14.60
2022-11-28T03:44:53.726Z,14.83
2022-11-28T03:46:20.093Z,14.87
2022-11-28T03:47:45.870Z,14.30
2022-11-28T03:49:11.143Z,14.03
2022-11-28T03:50:45.905Z,15.90
2022-11-28T03:52:18.474Z,14.50
2022-11-28T03:54:10.774Z,15.13
2022-11-28T03:56:00.163Z,13.53
2022-11-28T03:57:31.278Z,13.50
2022-11-28T03:59:01.879Z,13.27
2022-11-28T04:00:25.124Z,12.83
2022-11-28T04:02:20.954Z,13.43
2022-11-28T04:04:09.922Z,14.33
2022-11-28T04:06:14.107Z,13.90
2022-11-28T04:07:52.460Z,14.80
2022-11-28T04:09:21.844Z,12.80
2022-11-28T04:10:45.486Z,13.60
2022-11-28T04:12:29.124Z,14.10
2022-11-28T04:14:03.424Z,13.47
2022-11-28T04:15:36.807Z,14.60
2022-11-28T04:17:10.715Z,11.90
2022-11-28T04:18:40.031Z,14.30
2022-11-28T04:20:12.438Z,12.77
2022-11-28T04:21:41.307Z,13.30
2022-11-28T04:23:10.513Z,14.60
2022-11-28T04:24:40.802Z,12.50
2022-11-28T04:26:14.008Z,13.53
2022-11-28T04:27:40.764Z,13.80
2022-11-28T04:29:10.437Z,13.40
2022-11-28T04:30:33.487Z,13.90
2022-11-28T04:31:59.523Z,13.70
2022-11-28T04:33:26.727Z,12.30
2022-11-28T04:34:53.588Z,14.37
2022-11-28T04:36:18.950Z,12.63
2022-11-28T04:37:44.114Z,12.80
2022-11-28T04:39:12.594Z,13.50
2022-11-28T04:40:47.117Z,11.03
2022-11-28T04:42:26.232Z,12.73
2022-11-28T04:43:57.317Z,12.93
2022-11-28T04:45:36.524Z,13.00
2022-11-28T04:46:59.466Z,12.90
2022-11-28T04:48:21.974Z,12.30
2022-11-28T04:49:44.397Z,12.37
2022-11-28T04:51:14.401Z,12.60
2022-11-28T04:52:39.345Z,12.50
2022-11-28T04:54:19.035Z,12.00
2022-11-28T04:55:46.111Z,11.20
2022-11-28T04:57:16.020Z,11.97
2022-11-28T04:58:42.365Z,11.20
2022-11-28T05:00:15.252Z,12.33
2022-11-28T05:01:40.301Z,12.57
2022-11-28T05:03:03.491Z,12.20
2022-11-28T05:04:25.859Z,12.43
2022-11-28T05:05:50.767Z,12.47
2022-11-28T05:07:13.405Z,13.47
2022-11-28T05:08:35.732Z,12.10
2022-11-28T05:09:57.778Z,12.57
2022-11-28T05:11:20.061Z,12.73
2022-11-28T05:12:42.892Z,12.43
2022-11-28T05:14:05.664Z,11.60
2022-11-28T05:15:27.697Z,12.13
2022-11-28T05:16:50.069Z,12.50
2022-11-28T05:18:12.141Z,10.60
2022-11-28T05:19:34.163Z,11.90
2022-11-28T05:20:58.975Z,12.63
2022-11-28T05:22:21.117Z,12.87
2022-11-28T05:23:44.695Z,12.10
2022-11-28T05:25:07.203Z,12.43
2022-11-28T05:26:32.200Z,11.57
2022-11-28T05:27:54.327Z,11.73
2022-11-28T05:29:16.949Z,13.20
2022-11-28T05:30:38.995Z,13.03
2022-11-28T05:32:01.211Z,12.10
2022-11-28T05:33:23.392Z,12.23
2022-11-28T05:34:45.406Z,12.60
2022-11-28T05:36:13.167Z,12.27
2022-11-28T05:37:35.938Z,12.53
2022-11-28T05:38:58.020Z,11.50
2022-11-28T05:40:20.065Z,12.77
2022-11-28T05:41:42.173Z,12.27
2022-11-28T05:43:04.317Z,12.17
2022-11-28T05:44:27.235Z,12.40
2022-11-28T05:45:49.466Z,14.67
2022-11-28T05:47:11.550Z,13.10
2022-11-28T05:48:33.752Z,12.20
2022-11-28T05:49:55.803Z,12.90
2022-11-28T05:51:18.149Z,14.20
2022-11-28T05:52:40.246Z,12.43
2022-11-28T05:54:02.374Z,13.47
2022-11-28T05:55:24.813Z,13.10
2022-11-28T05:56:46.875Z,13.00
2022-11-28T05:58:08.983Z,12.73
2022-11-28T05:59:31.113Z,12.90
2022-11-28T06:00:53.171Z,12.70
2022-11-28T06:02:15.317Z,12.43
2022-11-28T06:03:37.434Z,12.53
2022-11-28T06:05:07.286Z,13.23
2022-11-28T06:06:38.470Z,12.93
2022-11-28T06:08:00.615Z,12.50
2022-11-28T06:09:25.779Z,13.10
2022-11-28T06:10:59.425Z,11.60
2022-11-28T06:12:21.454Z,12.53
2022-11-28T06:13:44.702Z,12.63
2022-11-28T06:15:07.326Z,11.80
2022-11-28T06:16:31.539Z,13.50
2022-11-28T06:17:53.678Z,12.10
2022-11-28T06:19:15.755Z,12.67
2022-11-28T06:20:37.957Z,13.33
2022-11-28T06:22:00.098Z,12.80
2022-11-28T06:23:22.236Z,12.77
2022-11-28T06:24:44.346Z,13.53
2022-11-28T06:26:12.282Z,11.83
2022-11-28T06:27:36.011Z,12.77
2022-11-28T06:28:58.439Z,13.17
2022-11-28T06:30:20.535Z,12.87
2022-11-28T06:31:42.708Z,12.80
2022-11-28T06:33:04.795Z,12.40
2022-11-28T06:34:27.326Z,12.33
2022-11-28T06:35:49.376Z,12.43
2022-11-28T06:37:11.525Z,13.60
2022-11-28T06:38:34.104Z,12.53
2022-11-28T06:39:56.153Z,13.00
2022-11-28T06:41:19.984Z,12.93
2022-11-28T06:42:42.021Z,12.43
2022-11-28T06:44:04.179Z,13.27
2022-11-28T06:45:26.400Z,13.23
2022-11-28T06:46:48.498Z,11.90
2022-11-28T06:48:10.547Z,12.77
2022-11-28T06:49:32.614Z,11.97
2022-11-28T06:50:55.015Z,11.80
2022-11-28T06:52:17.102Z,13.10
2022-11-28T06:53:39.679Z,12.60
2022-11-28T06:55:01.791Z,12.53
2022-11-28T06:56:24.086Z,12.80
2022-11-28T06:57:46.148Z,12.83
2022-11-28T06:59:11.330Z,12.47
2022-11-28T07:00:33.718Z,13.50
2022-11-28T07:01:57.696Z,14.20
2022-11-28T07:03:19.914Z,11.60
2022-11-28T07:04:41.972Z,13.00
2022-11-28T07:06:04.944Z,13.03
2022-11-28T07:07:27.157Z,13.60
2022-11-28T07:08:50.205Z,12.20
2022-11-28T07:10:12.575Z,12.07
2022-11-28T07:11:34.682Z,11.90
2022-11-28T07:13:01.317Z,13.57
2022-11-28T07:14:25.970Z,12.73
2022-11-28T07:15:50.041Z,13.20
2022-11-28T07:17:12.117Z,14.93
2022-11-28T07:18:34.786Z,12.40
2022-11-28T07:19:56.841Z,13.43
2022-11-28T07:21:20.093Z,12.53
2022-11-28T07:22:43.640Z,13.20
2022-11-28T07:24:06.028Z,14.90
2022-11-28T07:25:28.060Z,13.30
2022-11-28T07:26:50.123Z,13.40
2022-11-28T07:28:12.252Z,13.10
2022-11-28T07:29:37.361Z,14.60
2022-11-28T07:31:10.875Z,13.53
2022-11-28T07:32:32.961Z,13.20
2022-11-28T07:33:55.061Z,13.47
2022-11-28T07:35:17.326Z,13.80
2022-11-28T07:36:39.619Z,13.50
2022-11-28T07:38:01.688Z,14.20
2022-11-28T07:39:23.814Z,16.73
2022-11-28T07:40:45.907Z,13.83
2022-11-28T07:42:08.101Z,12.57
2022-11-28T07:43:30.214Z,16.10
2022-11-28T07:44:52.295Z,15.27
2022-11-28T07:46:17.081Z,16.40
2022-11-28T07:47:39.186Z,13.63
2022-11-28T07:49:02.049Z,14.13
2022-11-28T07:50:24.119Z,16.20
2022-11-28T07:51:46.237Z,15.57
2022-11-28T07:53:08.284Z,15.63
2022-11-28T07:54:30.302Z,15.13
2022-11-28T07:55:52.364Z,17.43
2022-11-28T07:57:14.409Z,14.00
2022-11-28T07:58:36.978Z,14.83
2022-11-28T07:59:59.048Z,14.87
2022-11-28T08:01:26.353Z,14.80
2022-11-28T08:02:48.531Z,14.70
2022-11-28T08:04:10.840Z,14.97
2022-11-28T08:05:33.692Z,14.70
2022-11-28T08:06:56.921Z,15.17
2022-11-28T08:08:19.824Z,15.27
2022-11-28T08:09:42.183Z,16.30
2022-11-28T08:11:07.840Z,15.27
2022-11-28T08:12:29.948Z,15.57
2022-11-28T08:13:55.052Z,15.43
2022-11-28T08:15:20.333Z,14.97
2022-11-28T08:16:44.975Z,15.37
2022-11-28T08:18:08.001Z,15.70
2022-11-28T08:19:33.799Z,15.37
2022-11-28T08:21:08.489Z,16.37
2022-11-28T08:22:30.547Z,14.30
2022-11-28T08:23:54.565Z,16.73
2022-11-28T08:25:16.641Z,17.13
2022-11-28T08:26:38.927Z,17.03
2022-11-28T08:28:01.043Z,16.10
2022-11-28T08:29:23.136Z,16.50
2022-11-28T08:30:45.283Z,18.93
2022-11-28T08:32:07.435Z,18.63
2022-11-28T08:33:29.510Z,19.70
2022-11-28T08:34:51.555Z,17.73
2022-11-28T08:36:15.133Z,19.47
2022-11-28T08:37:37.165Z,20.17
2022-11-28T08:39:22.932Z,20.93
2022-11-28T08:40:45.844Z,20.23
2022-11-28T08:42:07.881Z,19.40
2022-11-28T08:43:30.087Z,19.47
2022-11-28T08:44:52.222Z,19.60
2022-11-28T08:46:16.891Z,19.63
2022-11-28T08:47:38.969Z,20.70
2022-11-28T08:49:04.727Z,20.93
2022-11-28T08:50:26.976Z,20.20
2022-11-28T08:51:49.038Z,19.93
2022-11-28T08:53:11.103Z,20.00
2022-11-28T08:54:33.782Z,19.17
2022-11-28T08:55:55.875Z,19.60
2022-11-28T08:57:17.913Z,20.90
2022-11-28T08:58:40.238Z,21.03
2022-11-28T09:00:02.683Z,19.90
2022-11-28T09:01:26.278Z,19.60
2022-11-28T09:02:48.348Z,19.10
2022-11-28T09:04:10.483Z,18.97
2022-11-28T09:05:32.844Z,17.77
2022-11-28T09:06:55.128Z,20.73
2022-11-28T09:08:19.335Z,18.27
2022-11-28T09:09:41.341Z,21.40
2022-11-28T09:11:05.924Z,20.20
2022-11-28T09:12:27.993Z,19.87
2022-11-28T09:13:50.884Z,20.67
2022-11-28T09:15:13.132Z,18.40
2022-11-28T09:16:35.288Z,18.13
2022-11-28T09:17:57.501Z,19.00
2022-11-28T09:19:19.589Z,19.20
2022-11-28T09:20:42.182Z,18.10
2022-11-28T09:22:04.246Z,19.70
2022-11-28T09:23:26.607Z,17.90
2022-11-28T09:24:48.725Z,20.70
2022-11-28T09:26:12.709Z,19.10
2022-11-28T09:27:35.011Z,18.40
2022-11-28T09:28:57.124Z,19.00
2022-11-28T09:30:22.356Z,17.10
2022-11-28T09:31:47.399Z,21.13
2022-11-28T09:33:09.866Z,19.33
2022-11-28T09:34:31.946Z,19.80
2022-11-28T09:35:55.474Z,19.43
2022-11-28T09:37:18.024Z,20.17
2022-11-28T09:38:40.390Z,17.80
2022-11-28T09:40:13.167Z,19.77
2022-11-28T09:41:59.805Z,19.10
2022-11-28T09:43:35.734Z,18.37
2022-11-28T09:45:00.082Z,16.67
2022-11-28T09:46:28.982Z,18.23
2022-11-28T09:47:54.870Z,17.43
2022-11-28T09:49:39.950Z,19.23
2022-11-28T09:51:13.117Z,18.53
2022-11-28T09:53:21.003Z,19.00
2022-11-28T09:55:03.641Z,16.73
2022-11-28T09:56:26.043Z,18.17
2022-11-28T09:57:50.294Z,18.60
2022-11-28T09:59:25.488Z,18.93
2022-11-28T10:01:19.471Z,20.10
2022-11-28T10:02:56.057Z,17.10
2022-11-28T10:04:40.450Z,18.87
2022-11-28T10:06:15.519Z,17.73
2022-11-28T10:07:54.619Z,17.03
2022-11-28T10:10:02.809Z,17.20
2022-11-28T10:11:42.523Z,18.70
2022-11-28T10:13:41.144Z,19.10
2022-11-28T10:15:18.844Z,16.80
2022-11-28T10:16:49.663Z,17.10
2022-11-28T10:18:19.027Z,18.67
2022-11-28T10:19:55.168Z,17.23
2022-11-28T10:21:42.084Z,17.67
2022-11-28T10:23:38.585Z,18.10
2022-11-28T10:25:04.976Z,17.53
2022-11-28T10:26:43.777Z,16.07
2022-11-28T10:28:11.639Z,17.30
2022-11-28T10:29:50.155Z,16.80
2022-11-28T10:31:19.302Z,18.20
2022-11-28T10:32:45.298Z,17.83
2022-11-28T10:34:12.097Z,18.03
2022-11-28T10:35:46.585Z,18.40
2022-11-28T10:37:20.754Z,18.17
2022-11-28T10:38:43.637Z,17.17
2022-11-28T10:40:44.419Z,17.07
2022-11-28T10:42:20.123Z,17.37
2022-11-28T10:43:53.975Z,15.50
2022-11-28T10:45:30.075Z,17.23
2022-11-28T10:47:07.321Z,16.30
2022-11-28T10:49:07.598Z,17.07
2022-11-28T10:50:32.460Z,17.03
2022-11-28T10:52:03.961Z,18.53
2022-11-28T10:53:44.624Z,17.07
2022-11-28T10:55:12.568Z,16.43
2022-11-28T10:56:49.359Z,16.63
2022-11-28T10:58:27.339Z,17.33
2022-11-28T11:00:20.379Z,17.00
2022-11-28T11:01:45.926Z,16.90
2022-11-28T11:03:15.495Z,17.60
2022-11-28T11:04:38.759Z,16.37
2022-11-28T11:06:00.913Z,15.20
2022-11-28T11:07:31.496Z,16.90
2022-11-28T11:08:53.752Z,14.80
2022-11-28T11:10:23.526Z,16.83
2022-11-28T11:11:57.117Z,15.40
2022-11-28T11:13:24.933Z,14.30
2022-11-28T11:14:47.406Z,13.87
2022-11-28T11:16:12.329Z,15.63
2022-11-28T11:17:37.818Z,14.60
2022-11-28T11:19:00.325Z,13.80
2022-11-28T11:20:31.266Z,15.10
2022-11-28T11:22:03.544Z,15.87
2022-11-28T11:23:25.590Z,14.23
2022-11-28T11:25:10.416Z,13.23
2022-11-28T11:26:39.219Z,13.90
2022-11-28T11:28:04.288Z,14.40
2022-11-28T11:29:31.457Z,14.30
2022-11-28T11:31:18.217Z,12.97
2022-11-28T11:32:40.415Z,13.40
2022-11-28T11:34:18.033Z,15.20
2022-11-28T11:35:45.923Z,13.30
2022-11-28T11:37:37.201Z,12.47
2022-11-28T11:39:09.472Z,12.33
2022-11-28T11:40:31.576Z,12.40
2022-11-28T11:42:02.680Z,12.43
2022-11-28T11:43:31.847Z,13.53
2022-11-28T11:44:54.458Z,13.67
2022-11-28T11:46:17.318Z,12.27
2022-11-28T11:47:42.461Z,11.87
2022-11-28T11:49:04.511Z,13.10
2022-11-28T11:50:29.970Z,12.67
2022-11-28T11:51:57.646Z,12.67
2022-11-28T11:53:19.720Z,13.13
2022-11-28T11:54:56.496Z,12.93
2022-11-28T11:56:18.584Z,12.50
2022-11-28T11:57:46.279Z,13.90
2022-11-28T11:59:20.005Z,12.90
2022-11-28T12:00:43.455Z,12.47
2022-11-28T12:02:32.457Z,13.23
2022-11-28T12:04:17.707Z,11.70
2022-11-28T12:06:13.811Z,12.30
2022-11-28T12:07:48.963Z,12.80
2022-11-28T12:09:48.243Z,13.10
2022-11-28T12:11:27.765Z,12.80
2022-11-28T12:12:50.535Z,11.63
2022-11-28T12:14:36.202Z,11.30
2022-11-28T12:16:35.862Z,13.80
2022-11-28T12:18:11.835Z,12.60
2022-11-28T12:19:57.311Z,11.97
2022-11-28T12:21:37.130Z,12.53
2022-11-28T12:23:29.511Z,11.57
2022-11-28T12:25:09.527Z,12.93
2022-11-28T12:26:50.114Z,12.60
2022-11-28T12:28:34.798Z,11.43
2022-11-28T12:30:15.708Z,13.17
2022-11-28T12:31:59.744Z,11.73
2022-11-28T12:33:47.478Z,12.43
2022-11-28T12:35:13.975Z,13.20
2022-11-28T12:36:57.374Z,12.90
2022-11-28T12:38:22.539Z,11.90
2022-11-28T12:39:50.413Z,11.90
2022-11-28T12:41:34.353Z,11.80
2022-11-28T12:43:21.132Z,11.17
2022-11-28T12:45:16.737Z,12.00
2022-11-28T12:46:56.631Z,12.10
2022-11-28T12:48:45.371Z,13.23
2022-11-28T12:50:21.922Z,12.10
2022-11-28T12:52:01.749Z,12.13
2022-11-28T12:53:56.094Z,12.40
2022-11-28T12:55:35.352Z,12.07
2022-11-28T12:57:12.311Z,11.27
2022-11-28T12:58:41.354Z,12.10
2022-11-28T13:00:12.954Z,10.53
2022-11-28T13:01:47.056Z,12.03
2022-11-28T13:03:23.302Z,14.23
2022-11-28T13:04:54.347Z,11.90
2022-11-28T13:06:33.990Z,11.37
2022-11-28T13:08:02.106Z,12.83
2022-11-28T13:09:30.889Z,13.13
2022-11-28T13:11:17.601Z,13.17
2022-11-28T13:12:54.853Z,11.50
2022-11-28T13:14:41.024Z,11.80
2022-11-28T13:16:26.983Z,12.43
2022-11-28T13:18:03.977Z,11.20
2022-11-28T13:19:34.682Z,12.87
2022-11-28T13:21:01.620Z,11.73
2022-11-28T13:22:24.473Z,12.83
2022-11-28T13:23:52.796Z,12.50
2022-11-28T13:25:46.925Z,11.83
2022-11-28T13:27:36.313Z,11.50
2022-11-28T13:29:13.494Z,11.50
2022-11-28T13:30:46.358Z,11.10
2022-11-28T13:32:32.722Z,12.43
2022-11-28T13:33:56.643Z,11.47
2022-11-28T13:35:19.946Z,11.23
2022-11-28T13:39:09.610Z,11.70
2022-11-28T13:40:48.097Z,11.17
2022-11-28T13:44:17.426Z,12.07
2022-11-28T13:45:45.105Z,9.97
2022-11-28T13:47:15.427Z,11.10
2022-11-28T13:49:05.944Z,10.93
2022-11-28T13:50:25.329Z,9.77
2022-11-28T13:51:47.988Z,10.03
2022-11-28T13:53:20.831Z,10.47
2022-11-28T13:54:44.700Z,10.17
2022-11-28T13:56:07.244Z,9.80
2022-11-28T13:57:47.496Z,10.00
2022-11-28T13:59:19.240Z,9.53
2022-11-28T14:00:41.535Z,10.47
2022-11-28T14:02:15.710Z,9.37
2022-11-28T14:04:02.559Z,10.50
2022-11-28T14:05:31.813Z,8.50
2022-11-28T14:07:01.730Z,8.30
2022-11-28T14:08:33.349Z,8.67
2022-11-28T14:10:12.840Z,8.47
2022-11-28T14:11:40.863Z,9.30
2022-11-28T14:13:17.585Z,8.57
2022-11-28T14:14:57.495Z,8.53
2022-11-28T14:16:25.764Z,8.90
2022-11-28T14:18:19.166Z,9.23
2022-11-28T14:19:59.033Z,9.27
2022-11-28T14:21:44.587Z,7.83
2022-11-28T14:23:27.031Z,8.90
2022-11-28T14:24:57.670Z,7.80
2022-11-28T14:26:39.395Z,7.80
2022-11-28T14:28:07.703Z,8.33
2022-11-28T14:29:41.398Z,8.30
2022-11-28T14:31:15.353Z,8.23
2022-11-28T14:32:41.883Z,8.70
2022-11-28T14:34:31.051Z,8.43
2022-11-28T14:35:53.167Z,7.77
2022-11-28T14:37:27.276Z,7.77
2022-11-28T14:39:10.659Z,8.07
2022-11-28T14:41:12.756Z,7.77
2022-11-28T14:44:47.668Z,6.40
2022-11-28T14:46:16.027Z,7.80
2022-11-28T14:47:43.031Z,7.17
2022-11-28T14:49:16.881Z,7.33
2022-11-28T14:50:38.968Z,8.57
2022-11-28T14:54:02.090Z,7.27
2022-11-28T14:55:25.998Z,7.60
2022-11-28T14:56:52.912Z,6.50
2022-11-28T14:58:17.518Z,6.67
2022-11-28T14:59:40.116Z,7.20
2022-11-28T15:01:12.011Z,7.87
2022-11-28T15:02:56.261Z,7.30
2022-11-28T15:04:46.362Z,7.77
2022-11-28T15:06:18.433Z,7.37
2022-11-28T15:08:18.018Z,6.53
2022-11-28T15:09:56.278Z,8.20
2022-11-28T15:11:32.952Z,7.10
2022-11-28T15:12:54.927Z,7.40
2022-11-28T15:14:24.191Z,7.20
2022-11-28T15:15:50.889Z,7.40
2022-11-28T15:17:14.481Z,6.97
2022-11-28T15:18:38.486Z,6.90
2022-11-28T15:20:14.195Z,7.50
2022-11-28T15:21:51.746Z,6.63
2022-11-28T15:23:30.997Z,7.10
2022-11-28T15:24:53.108Z,6.97
2022-11-28T15:26:27.774Z,7.80
2022-11-28T15:27:50.008Z,7.70
2022-11-28T15:29:18.157Z,7.37
2022-11-28T15:30:46.302Z,7.10
2022-11-28T15:32:13.215Z,7.03
2022-11-28T15:33:35.353Z,6.67
2022-11-28T15:35:01.031Z,6.90
2022-11-28T15:36:28.309Z,6.20
2022-11-28T15:37:59.376Z,6.83
2022-11-28T15:39:31.441Z,6.40
2022-11-28T15:40:54.722Z,6.10
2022-11-28T15:42:30.838Z,6.90
2022-11-28T15:43:54.212Z,6.70
2022-11-28T15:45:32.228Z,6.70
2022-11-28T15:46:55.093Z,6.30
2022-11-28T15:48:37.545Z,7.33
2022-11-28T15:50:14.440Z,6.37
2022-11-28T15:51:36.569Z,6.80
2022-11-28T15:53:16.248Z,6.57
2022-11-28T15:54:41.580Z,6.97
2022-11-28T15:56:11.754Z,7.53
2022-11-28T15:57:33.799Z,7.70
2022-11-28T15:58:56.760Z,7.40
2022-11-28T16:00:21.805Z,7.53
2022-11-28T16:01:44.302Z,7.27
2022-11-28T16:03:06.866Z,7.53
2022-11-28T16:04:30.401Z,7.67
2022-11-28T16:05:55.587Z,9.00
2022-11-28T16:07:17.783Z,8.17
2022-11-28T16:08:47.277Z,8.60
2022-11-28T16:10:32.472Z,7.47
2022-11-28T16:11:54.998Z,8.83
2022-11-28T16:13:21.216Z,8.03
2022-11-28T16:14:45.505Z,8.20
2022-11-28T16:16:21.847Z,8.67
2022-11-28T16:17:44.181Z,10.33
2022-11-28T16:19:20.782Z,8.80
2022-11-28T16:20:43.521Z,9.67
2022-11-28T16:22:11.246Z,9.93
2022-11-28T16:23:35.866Z,8.40
2022-11-28T16:24:59.996Z,10.60
2022-11-28T16:26:31.888Z,9.47
2022-11-28T16:27:57.265Z,10.57
2022-11-28T16:29:22.282Z,10.40
2022-11-28T16:30:48.345Z,9.07
2022-11-28T16:32:21.828Z,9.47
2022-11-28T16:33:45.102Z,9.90
2022-11-28T16:35:12.317Z,9.30
2022-11-28T16:36:37.391Z,9.70
2022-11-28T16:38:15.280Z,10.50
2022-11-28T16:39:37.397Z,9.87
2022-11-28T16:41:02.897Z,10.10
2022-11-28T16:42:25.016Z,9.60
2022-11-28T16:43:52.222Z,10.93
2022-11-28T16:46:39.098Z,10.03
2022-11-28T16:48:08.865Z,10.47
2022-11-28T16:49:43.453Z,9.73
2022-11-28T16:51:12.141Z,9.53
2022-11-28T16:52:53.749Z,10.17
2022-11-28T16:54:33.786Z,8.93
2022-11-28T16:55:55.923Z,10.13
2022-11-28T16:57:20.196Z,9.73
2022-11-28T16:58:42.318Z,9.47
2022-11-28T17:00:04.795Z,9.60
2022-11-28T17:01:28.297Z,10.20
2022-11-28T17:02:53.491Z,11.40
2022-11-28T17:04:22.653Z,9.73
2022-11-28T17:05:44.672Z,9.73
2022-11-28T17:07:14.002Z,9.60
2022-11-28T17:08:36.172Z,10.30
2022-11-28T17:09:58.382Z,10.17
2022-11-28T17:11:23.929Z,9.77
2022-11-28T17:12:46.385Z,9.83
2022-11-28T17:14:13.665Z,9.93
2022-11-28T17:15:36.040Z,10.10
2022-11-28T17:16:58.169Z,10.17
2022-11-28T17:18:20.258Z,9.47
2022-11-28T17:19:43.295Z,8.90
2022-11-28T17:21:05.728Z,10.63
2022-11-28T17:22:47.737Z,9.57
2022-11-28T17:24:21.875Z,9.60
2022-11-28T17:25:43.885Z,9.80
2022-11-28T17:27:08.936Z,9.73
2022-11-28T17:28:30.992Z,10.60
2022-11-28T17:29:53.149Z,10.80
2022-11-28T17:31:15.402Z,9.33
2022-11-28T17:32:37.510Z,9.77
2022-11-28T17:33:59.612Z,10.63
2022-11-28T17:35:24.739Z,9.23
2022-11-28T17:36:47.751Z,10.27
2022-11-28T17:38:09.785Z,11.10
2022-11-28T17:39:31.967Z,11.00
2022-11-28T17:40:54.167Z,11.33
2022-11-28T17:42:16.266Z,11.20
2022-11-28T17:43:39.407Z,11.90
2022-11-28T17:45:01.579Z,12.00
2022-11-28T17:46:23.630Z,10.90
2022-11-28T17:47:45.730Z,11.80
2022-11-28T17:49:07.783Z,13.43
2022-11-28T17:50:29.816Z,12.30
2022-11-28T17:51:52.789Z,11.90
2022-11-28T17:53:17.829Z,12.73
2022-11-28T17:54:39.992Z,13.47
2022-11-28T17:56:02.220Z,12.53
2022-11-28T17:57:24.289Z,13.47
2022-11-28T17:58:46.535Z,13.37
2022-11-28T18:00:10.988Z,12.80
2022-11-28T18:01:33.074Z,13.33
2022-11-28T18:02:55.364Z,12.90
2022-11-28T18:04:17.542Z,13.73
2022-11-28T18:05:45.660Z,14.37
2022-11-28T18:07:07.764Z,13.17
2022-11-28T18:08:29.818Z,13.90
2022-11-28T18:09:51.944Z,14.70
2022-11-28T18:11:15.182Z,14.07
2022-11-28T18:12:38.196Z,14.20
2022-11-28T18:14:00.203Z,15.97
2022-11-28T18:15:22.288Z,15.70
2022-11-28T18:16:44.400Z,15.57
2022-11-28T18:18:06.876Z,15.57
2022-11-28T18:19:28.975Z,14.87
2022-11-28T18:20:51.182Z,14.47
2022-11-28T18:22:13.238Z,15.30
2022-11-28T18:23:39.033Z,14.73
2022-11-28T18:25:01.176Z,16.83
2022-11-28T18:26:25.073Z,17.37
2022-11-28T18:27:47.163Z,15.27
2022-11-28T18:29:09.780Z,15.90
2022-11-28T18:30:31.831Z,17.47
2022-11-28T18:31:53.924Z,15.63
2022-11-28T18:33:17.379Z,17.73
2022-11-28T18:34:39.518Z,16.30
2022-11-28T18:36:23.460Z,19.77
2022-11-28T18:37:45.622Z,16.37
2022-11-28T18:39:11.586Z,16.03
2022-11-28T18:40:36.202Z,16.57
2022-11-28T18:41:59.991Z,17.17
2022-11-28T18:43:22.064Z,16.07
2022-11-28T18:44:44.182Z,16.30
2022-11-28T18:46:08.513Z,18.10
2022-11-28T18:47:30.656Z,17.03
2022-11-28T18:48:53.284Z,17.40
2022-11-28T18:50:15.443Z,17.10
2022-11-28T18:51:37.605Z,17.30
2022-11-28T18:53:00.701Z,18.00
2022-11-28T18:54:23.105Z,16.40
2022-11-28T18:55:45.173Z,17.00
2022-11-28T18:57:08.052Z,16.50
2022-11-28T18:58:33.578Z,17.90
2022-11-28T18:59:56.569Z,17.37
2022-11-28T19:01:20.862Z,16.57
2022-11-28T19:02:43.187Z,18.70
2022-11-28T19:04:11.999Z,19.40
2022-11-28T19:05:39.150Z,17.43
2022-11-28T19:07:02.459Z,17.87
2022-11-28T19:08:24.539Z,17.10
2022-11-28T19:09:47.023Z,18.17
2022-11-28T19:11:14.273Z,16.33
2022-11-28T19:12:37.267Z,17.40
2022-11-28T19:13:59.446Z,16.67